Time;durP1;ratioP1;P1;durP2;ratioP2;P2;SDS_P1;SDS_P2;PMS_P1;PMS_P2;Temp;Humidity;BMP_temperature;BMP_pressure;BME280_temperature;BME280_humidity;BME280_pressure;Samples;Min_cycle;Max_cycle;Signal;HPM_P1;HPM_P2
2022/08/10 00:00:25;;;;;;;106.30;61.80;;;28.00;99.90;;;;;;5115829;28;20023;-68
2022/08/10 00:02:55;;;;;;;90.88;56.00;;;27.90;99.90;;;;;;5115776;28;20020;-68
2022/08/10 00:05:22;;;;;;;69.78;46.33;;;27.90;99.90;;;;;;5115558;28;20031;-68
2022/08/10 00:07:49;;;;;;;64.45;44.65;;;27.90;99.90;;;;;;5115769;28;20104;-68
2022/08/10 00:10:18;;;;;;;65.93;43.40;;;27.70;99.90;;;;;;5115582;28;20466;-68
2022/08/10 00:12:45;;;;;;;57.25;40.22;;;27.60;99.90;;;;;;5115499;28;20085;-68
2022/08/10 00:15:18;;;;;;;88.22;50.28;;;27.50;99.90;;;;;;5115543;28;20030;-68
2022/08/10 00:17:45;;;;;;;74.47;50.40;;;27.60;99.90;;;;;;5115328;28;20035;-66
2022/08/10 00:20:12;;;;;;;100.50;71.53;;;27.60;99.90;;;;;;5115391;28;20677;-68
2022/08/10 00:22:39;;;;;;;84.30;58.45;;;27.70;99.90;;;;;;5115488;28;20089;-68
2022/08/10 00:25:06;;;;;;;88.07;57.90;;;27.60;99.90;;;;;;5115329;28;20072;-68
2022/08/10 00:27:33;;;;;;;59.13;42.13;;;27.70;99.90;;;;;;5085143;28;20035;-67
2022/08/10 00:30:00;;;;;;;57.30;41.97;;;27.60;99.90;;;;;;5081716;28;20473;-68
2022/08/10 00:32:26;;;;;;;64.63;44.30;;;27.50;99.90;;;;;;5084254;28;20059;-67
2022/08/10 00:34:53;;;;;;;69.93;47.65;;;27.60;99.90;;;;;;5073308;28;20383;-67
2022/08/10 00:37:19;;;;;;;62.63;42.75;;;27.60;99.90;;;;;;5074609;28;20044;-68
2022/08/10 00:39:46;;;;;;;63.50;45.20;;;27.60;99.90;;;;;;5074458;28;20025;-67
2022/08/10 00:42:14;;;;;;;64.93;45.00;;;27.70;99.90;;;;;;5074122;28;20069;-68
2022/08/10 00:44:44;;;;;;;94.18;60.90;;;27.80;99.90;;;;;;5074367;28;20111;-67
2022/08/10 00:47:12;;;;;;;66.00;48.30;;;27.90;99.90;;;;;;5074345;28;20107;-68
2022/08/10 00:49:40;;;;;;;93.68;62.42;;;27.90;99.90;;;;;;5074135;28;20367;-67
2022/08/10 00:52:07;;;;;;;95.60;64.00;;;28.10;99.90;;;;;;5074170;28;20028;-68
2022/08/10 00:54:36;;;;;;;91.88;57.05;;;28.10;99.90;;;;;;5074136;28;20108;-68
2022/08/10 00:57:04;;;;;;;86.32;54.78;;;28.20;99.90;;;;;;5074198;28;20021;-68
2022/08/10 00:59:32;;;;;;;87.82;59.20;;;28.20;99.90;;;;;;5074104;28;20020;-67
2022/08/10 01:01:59;;;;;;;70.18;47.40;;;28.30;99.90;;;;;;5073892;28;20093;-68
2022/08/10 01:04:26;;;;;;;66.45;46.92;;;28.30;99.90;;;;;;5073894;28;20474;-68
2022/08/10 01:07:12;;;;;;;61.38;43.20;;;28.30;99.90;;;;;;5074030;28;20543;-68
2022/08/10 01:09:40;;;;;;;64.05;41.85;;;28.30;99.90;;;;;;5073767;28;20159;-68
2022/08/10 01:12:11;;;;;;;98.43;56.60;;;28.30;99.90;;;;;;5074038;28;20407;-68
2022/08/10 01:15:00;;;;;;;79.85;49.97;;;28.40;99.90;;;;;;5073715;28;20470;-69
2022/08/10 01:17:46;;;;;;;57.97;40.55;;;28.50;99.90;;;;;;5073494;28;20098;-67
2022/08/10 01:20:13;;;;;;;65.75;42.05;;;28.50;99.90;;;;;;5073714;28;20032;-68
2022/08/10 01:22:57;;;;;;;61.72;41.50;;;28.60;99.90;;;;;;5073665;28;20020;-68
2022/08/10 01:25:53;;;;;;;73.60;45.85;;;28.60;99.90;;;;;;5073363;28;20032;-67
2022/08/10 01:28:40;;;;;;;73.63;47.00;;;28.70;99.90;;;;;;4972047;28;20042;-68
2022/08/10 01:31:11;;;;;;;63.75;40.70;;;28.80;99.90;;;;;;4972556;28;20055;-68
2022/08/10 01:34:01;;;;;;;64.00;42.85;;;28.90;99.90;;;;;;4972579;28;20518;-68
2022/08/10 01:36:45;;;;;;;50.30;37.80;;;28.90;99.90;;;;;;4972662;28;20037;-67
2022/08/10 01:39:18;;;;;;;52.53;36.30;;;29.00;99.90;;;;;;4972681;28;20027;-67
2022/08/10 01:41:49;;;;;;;56.30;35.10;;;29.00;99.90;;;;;;4972686;28;20043;-67
2022/08/10 01:44:45;;;;;;;46.83;34.13;;;29.10;99.90;;;;;;4972092;28;20552;-67
2022/08/10 01:49:55;;;;;;;57.28;37.53;;;29.40;99.90;;;;;;4972395;28;20038;-68
2022/08/10 01:52:25;;;;;;;46.47;31.08;;;29.40;99.90;;;;;;4972432;28;20019;-67
2022/08/10 01:54:55;;;;;;;63.90;41.20;;;29.50;99.90;;;;;;4972131;28;20026;-67
2022/08/10 01:57:23;;;;;;;51.58;32.88;;;29.60;99.90;;;;;;4972459;28;20054;-67
2022/08/10 01:59:51;;;;;;;50.97;30.88;;;29.50;99.90;;;;;;4972467;28;20031;-67
2022/08/10 02:02:19;;;;;;;88.50;52.42;;;29.60;99.90;;;;;;4972509;28;20023;-66
2022/08/10 02:04:48;;;;;;;48.63;31.75;;;29.70;99.90;;;;;;4972584;28;20046;-67
2022/08/10 02:07:20;;;;;;;35.67;25.50;;;29.80;99.90;;;;;;4972334;28;20051;-68
2022/08/10 02:09:50;;;;;;;34.67;24.40;;;29.80;99.90;;;;;;4972392;28;20043;-67
2022/08/10 02:12:21;;;;;;;57.10;35.92;;;29.90;99.90;;;;;;5048228;28;20036;-68
2022/08/10 02:15:01;;;;;;;40.50;25.52;;;29.90;99.90;;;;;;5072820;28;20535;-67
2022/08/10 02:17:39;;;;;;;37.00;25.60;;;30.00;99.90;;;;;;5072842;28;20046;-67
2022/08/10 02:20:10;;;;;;;32.83;23.20;;;30.00;99.90;;;;;;5072791;28;20491;-67
2022/08/10 02:22:39;;;;;;;35.60;20.52;;;30.10;99.90;;;;;;5072989;28;20052;-67
2022/08/10 02:25:08;;;;;;;30.55;19.38;;;30.20;99.90;;;;;;5072938;28;20052;-67
2022/08/10 02:27:36;;;;;;;31.50;20.48;;;30.20;99.90;;;;;;5072970;28;20039;-67
2022/08/10 02:30:06;;;;;;;30.75;20.70;;;30.20;99.90;;;;;;5072733;28;20107;-67
2022/08/10 02:32:34;;;;;;;24.40;17.75;;;30.10;99.90;;;;;;5072478;28;20028;-66
2022/08/10 02:35:05;;;;;;;29.38;19.60;;;30.00;99.90;;;;;;5072841;28;20025;-66
2022/08/10 02:37:33;;;;;;;39.03;20.98;;;30.00;99.90;;;;;;5072741;28;20012;-68
2022/08/10 02:40:00;;;;;;;39.03;26.52;;;30.10;99.90;;;;;;5072595;28;20020;-67
2022/08/10 02:42:35;;;;;;;34.88;19.83;;;30.30;99.90;;;;;;5072766;28;20108;-67
2022/08/10 02:45:09;;;;;;;29.20;16.40;;;30.30;99.90;;;;;;5072806;28;20027;-67
2022/08/10 02:47:42;;;;;;;26.40;15.82;;;30.20;99.90;;;;;;5072680;28;20025;-67
2022/08/10 02:50:26;;;;;;;25.45;18.08;;;30.20;99.90;;;;;;5072612;28;20029;-67
2022/08/10 02:53:01;;;;;;;20.00;14.55;;;30.20;99.90;;;;;;5072656;28;20167;-67
2022/08/10 02:55:45;;;;;;;23.63;14.40;;;30.40;99.90;;;;;;5072642;28;20025;-67
2022/08/10 02:58:21;;;;;;;22.83;15.68;;;30.40;99.90;;;;;;5074231;28;20418;-67
2022/08/10 03:00:53;;;;;;;21.95;16.25;;;30.60;99.90;;;;;;5076398;28;20383;-67
2022/08/10 03:03:32;;;;;;;20.85;15.95;;;30.60;99.90;;;;;;5076381;28;20032;-67
2022/08/10 03:06:04;;;;;;;21.98;15.73;;;30.70;99.90;;;;;;5076245;28;20081;-66
2022/08/10 03:08:33;;;;;;;;;;;30.60;99.90;;;;;;5076407;28;20029;-66
2022/08/10 03:11:02;;;;;;;23.92;14.40;;;30.50;99.90;;;;;;5076121;28;20416;-66
2022/08/10 03:13:31;;;;;;;24.92;14.50;;;30.60;99.90;;;;;;5075861;28;20033;-66
2022/08/10 03:16:01;;;;;;;23.13;12.93;;;30.60;99.90;;;;;;5075563;28;20419;-68
2022/08/10 03:18:30;;;;;;;20.35;11.77;;;30.60;99.90;;;;;;5075872;28;20027;-67
2022/08/10 03:20:59;;;;;;;20.85;11.63;;;30.60;99.90;;;;;;5075771;28;20021;-68
2022/08/10 03:23:27;;;;;;;20.20;11.43;;;30.60;99.90;;;;;;5075764;28;20123;-68
2022/08/10 03:25:56;;;;;;;15.23;11.30;;;30.60;99.90;;;;;;5075906;28;20020;-67
2022/08/10 03:28:25;;;;;;;16.23;10.95;;;30.70;99.90;;;;;;5075591;28;20020;-68
2022/08/10 03:30:53;;;;;;;18.73;12.65;;;30.80;99.90;;;;;;5075903;28;20031;-68
2022/08/10 03:33:21;;;;;;;22.13;12.25;;;30.70;99.90;;;;;;5075793;28;20475;-67
2022/08/10 03:35:48;;;;;;;24.05;13.50;;;30.70;99.90;;;;;;5075555;28;20025;-68
2022/08/10 03:38:15;;;;;;;19.30;12.95;;;30.70;99.90;;;;;;5075660;28;20024;-68
2022/08/10 03:40:44;;;;;;;22.02;13.82;;;30.70;99.90;;;;;;5075806;28;20425;-68
2022/08/10 03:43:16;;;;;;;18.55;11.70;;;31.00;99.90;;;;;;5075485;28;20039;-68
2022/08/10 03:45:43;;;;;;;18.03;10.50;;;30.90;99.90;;;;;;5075636;28;20066;-68
2022/08/10 03:48:11;;;;;;;15.85;9.85;;;30.90;99.90;;;;;;5075663;28;20409;-68
2022/08/10 03:50:38;;;;;;;13.73;8.75;;;30.90;99.90;;;;;;5075381;28;20020;-68
2022/08/10 03:53:05;;;;;;;15.90;12.20;;;31.10;99.90;;;;;;5079919;28;20025;-67
2022/08/10 03:55:32;;;;;;;22.55;14.23;;;31.20;99.90;;;;;;5082493;28;20024;-66
2022/08/10 03:57:59;;;;;;;22.75;13.15;;;31.10;99.90;;;;;;5075666;28;20087;-67
2022/08/10 04:00:27;;;;;;;17.08;10.85;;;31.20;99.90;;;;;;5076866;28;20381;-67
2022/08/10 04:02:56;;;;;;;13.88;9.10;;;31.40;99.90;;;;;;5088070;28;20064;-68
2022/08/10 04:05:23;;;;;;;16.88;10.43;;;31.50;99.90;;;;;;5093542;28;20020;-67
2022/08/10 04:07:50;;;;;;;19.80;13.57;;;31.50;99.90;;;;;;5102026;28;20035;-67
2022/08/10 04:10:17;;;;;;;19.30;11.60;;;31.40;99.90;;;;;;5105502;28;20026;-67
2022/08/10 04:12:43;;;;;;;16.95;11.30;;;31.30;99.90;;;;;;5104216;28;20024;-66
2022/08/10 04:15:10;;;;;;;18.27;12.23;;;31.30;99.90;;;;;;5103992;28;20008;-66
2022/08/10 04:17:37;;;;;;;14.63;10.13;;;31.20;99.90;;;;;;5105797;28;20039;-67
2022/08/10 04:20:07;;;;;;;17.67;10.00;;;31.30;99.90;;;;;;5104150;28;20545;-67
2022/08/10 04:22:35;;;;;;;19.30;10.77;;;31.30;99.90;;;;;;5103376;28;20034;-67
2022/08/10 04:25:04;;;;;;;13.40;9.65;;;31.40;99.90;;;;;;5104708;28;20099;-67
2022/08/10 04:27:31;;;;;;;16.92;12.23;;;31.50;99.90;;;;;;5103313;28;20082;-66
2022/08/10 04:29:57;;;;;;;13.15;9.30;;;31.80;99.90;;;;;;5101064;28;20027;-64
2022/08/10 04:32:30;;;;;;;18.00;11.30;;;31.90;99.90;;;;;;5105017;28;20019;-63
2022/08/10 04:34:58;;;;;;;16.02;10.70;;;31.80;99.90;;;;;;5099589;28;20382;-63
2022/08/10 04:37:26;;;;;;;19.02;11.10;;;31.80;99.90;;;;;;5103657;28;20028;-64
2022/08/10 04:39:52;;;;;;;19.92;11.73;;;31.60;99.90;;;;;;5105091;28;20033;-64
2022/08/10 04:42:19;;;;;;;14.02;10.38;;;31.50;99.90;;;;;;5103812;28;20467;-64
2022/08/10 04:44:46;;;;;;;19.90;11.98;;;31.50;99.90;;;;;;5103462;28;20019;-63
2022/08/10 04:47:12;;;;;;;17.65;12.25;;;31.40;99.90;;;;;;5088018;28;20209;-64
2022/08/10 04:49:39;;;;;;;20.58;12.52;;;31.40;99.90;;;;;;5098154;28;20028;-64
2022/08/10 04:52:06;;;;;;;17.10;10.18;;;31.50;99.90;;;;;;5104238;28;20026;-64
2022/08/10 04:54:32;;;;;;;18.70;10.50;;;31.50;99.90;;;;;;5105710;28;20599;-65
2022/08/10 04:56:59;;;;;;;17.35;10.82;;;31.50;99.90;;;;;;5104059;28;20613;-64
2022/08/10 04:59:25;;;;;;;16.25;10.23;;;31.50;99.90;;;;;;5103649;28;20023;-66
2022/08/10 05:01:52;;;;;;;16.70;11.07;;;31.50;99.90;;;;;;5105026;28;20027;-69
2022/08/10 05:04:18;;;;;;;19.85;11.52;;;31.60;99.90;;;;;;5103322;28;20027;-66
2022/08/10 05:06:45;;;;;;;15.55;10.20;;;31.70;99.90;;;;;;5099768;28;20032;-65
2022/08/10 05:09:12;;;;;;;17.73;10.32;;;31.70;99.90;;;;;;5106034;28;20031;-66
2022/08/10 05:11:38;;;;;;;15.07;9.77;;;31.70;99.90;;;;;;5103144;28;20028;-65
2022/08/10 05:14:05;;;;;;;11.18;9.13;;;31.80;99.90;;;;;;5103527;28;20518;-65
2022/08/10 05:16:31;;;;;;;13.23;9.13;;;31.90;99.90;;;;;;5104466;28;20035;-64
2022/08/10 05:18:58;;;;;;;12.98;9.18;;;31.90;99.90;;;;;;5102916;28;20382;-66
2022/08/10 05:21:24;;;;;;;15.85;10.35;;;31.90;99.90;;;;;;5102668;28;20019;-66
2022/08/10 05:23:51;;;;;;;12.18;9.75;;;32.10;99.90;;;;;;5104524;28;20545;-65
2022/08/10 05:26:17;;;;;;;15.63;10.10;;;32.10;99.90;;;;;;5102952;28;20035;-65
2022/08/10 05:28:44;;;;;;;19.50;9.85;;;32.20;99.90;;;;;;5102810;28;20039;-65
2022/08/10 05:31:10;;;;;;;15.20;8.68;;;32.20;99.90;;;;;;5099021;28;20110;-66
2022/08/10 05:33:37;;;;;;;13.85;9.27;;;32.30;99.90;;;;;;5093684;28;20424;-67
2022/08/10 05:36:05;;;;;;;17.13;9.15;;;32.40;99.90;;;;;;5093916;28;20024;-65
2022/08/10 05:38:32;;;;;;;15.60;9.95;;;32.30;99.90;;;;;;5093829;28;20428;-66
2022/08/10 05:40:59;;;;;;;20.65;9.70;;;32.30;99.90;;;;;;5093751;28;20020;-65
2022/08/10 05:43:27;;;;;;;11.80;9.73;;;32.30;99.90;;;;;;5093867;28;20071;-65
2022/08/10 05:45:53;;;;;;;11.93;8.50;;;32.30;99.90;;;;;;5093557;28;20024;-65
2022/08/10 05:48:20;;;;;;;15.43;9.40;;;32.30;99.90;;;;;;5093467;28;20477;-65
2022/08/10 05:50:47;;;;;;;17.70;9.50;;;32.30;99.90;;;;;;5093448;28;20021;-66
2022/08/10 05:53:14;;;;;;;16.27;9.85;;;32.30;99.90;;;;;;5093406;28;20117;-65
2022/08/10 05:55:40;;;;;;;12.82;10.55;;;32.40;99.90;;;;;;5093343;28;20031;-65
2022/08/10 05:58:07;;;;;;;17.55;10.40;;;32.50;99.90;;;;;;5092108;28;20034;-65
2022/08/10 06:00:37;;;;;;;15.95;9.65;;;32.50;99.90;;;;;;5086258;22;20413;-64
2022/08/10 06:03:07;;;;;;;19.40;10.55;;;32.60;99.90;;;;;;5054023;28;20031;-63
2022/08/10 06:05:38;;;;;;;18.48;11.77;;;32.50;99.90;;;;;;5059496;28;20029;-64
2022/08/10 06:08:21;;;;;;;17.73;10.43;;;32.70;99.90;;;;;;5061263;28;20024;-64
2022/08/10 06:10:50;;;;;;;11.32;8.52;;;33.10;99.60;;;;;;5060921;28;20025;-63
2022/08/10 06:16:08;;;;;;;14.52;9.48;;;33.20;98.70;;;;;;5057601;28;20043;-63
2022/08/10 06:18:36;;;;;;;13.68;8.27;;;33.10;97.90;;;;;;5060911;28;20028;-63
2022/08/10 06:21:04;;;;;;;12.35;8.20;;;33.10;97.30;;;;;;5059620;28;20025;-64
2022/08/10 06:23:31;;;;;;;14.90;8.55;;;33.10;97.20;;;;;;5059190;28;20019;-63
2022/08/10 06:25:59;;;;;;;14.85;8.30;;;33.30;96.60;;;;;;5056578;28;20387;-63
2022/08/10 06:28:30;;;;;;;16.42;8.43;;;33.40;96.40;;;;;;5061385;28;20475;-64
2022/08/10 06:30:58;;;;;;;15.20;7.88;;;33.50;96.00;;;;;;5062879;28;20025;-64
2022/08/10 06:33:27;;;;;;;10.85;7.75;;;33.60;95.60;;;;;;5065434;28;20025;-64
2022/08/10 06:35:55;;;;;;;11.07;7.72;;;33.60;94.80;;;;;;5059633;28;20491;-65
2022/08/10 06:38:25;;;;;;;9.85;7.10;;;33.80;95.90;;;;;;5056902;28;20433;-65
2022/08/10 06:40:56;;;;;;;14.63;7.97;;;33.70;95.00;;;;;;5056649;28;20036;-64
2022/08/10 06:43:24;;;;;;;12.70;7.65;;;33.70;95.30;;;;;;5056641;28;20505;-65
2022/08/10 06:45:59;;;;;;;16.50;8.10;;;33.60;95.70;;;;;;5056791;28;20032;-65
2022/08/10 06:48:34;;;;;;;15.30;7.80;;;33.60;95.20;;;;;;5049681;28;20098;-64
2022/08/10 06:51:07;;;;;;;15.93;8.13;;;33.50;95.70;;;;;;5036796;28;20044;-64
2022/08/10 06:53:38;;;;;;;14.15;7.80;;;33.50;95.10;;;;;;5036455;28;20018;-65
2022/08/10 06:56:23;;;;;;;16.73;8.60;;;33.30;95.20;;;;;;5036613;28;20048;-65
2022/08/10 06:58:56;;;;;;;14.43;8.10;;;33.00;95.60;;;;;;5036150;28;20455;-64
2022/08/10 07:01:30;;;;;;;49.38;34.00;;;32.70;96.30;;;;;;5036598;28;20120;-65
2022/08/10 07:04:05;;;;;;;41.95;34.80;;;32.60;97.00;;;;;;5036432;28;20039;-65
2022/08/10 07:06:35;;;;;;;239.10;186.95;;;32.40;97.60;;;;;;5036315;28;20391;-65
2022/08/10 07:09:03;;;;;;;45.75;31.35;;;32.30;97.20;;;;;;5036156;28;20034;-65
2022/08/10 07:11:31;;;;;;;25.15;14.93;;;32.20;96.20;;;;;;5036338;28;20037;-64
2022/08/10 07:13:59;;;;;;;20.02;8.75;;;32.10;96.00;;;;;;5036424;28;20092;-65
2022/08/10 07:16:27;;;;;;;20.30;7.68;;;32.00;96.40;;;;;;5036179;28;20025;-64
2022/08/10 07:18:57;;;;;;;12.63;7.05;;;31.90;96.40;;;;;;5035900;28;20052;-65
2022/08/10 07:21:25;;;;;;;18.65;7.22;;;31.90;95.90;;;;;;5036149;28;20029;-64
2022/08/10 07:23:53;;;;;;;12.05;6.53;;;32.00;94.60;;;;;;5035986;28;20476;-64
2022/08/10 07:26:21;;;;;;;12.73;5.93;;;32.00;93.70;;;;;;5059958;28;20438;-65
2022/08/10 07:28:49;;;;;;;9.50;5.82;;;32.00;93.90;;;;;;5064918;28;20040;-64
2022/08/10 07:31:20;;;;;;;10.40;5.80;;;32.00;93.50;;;;;;5065195;28;20494;-64
2022/08/10 07:33:52;;;;;;;10.82;5.82;;;32.10;93.50;;;;;;5061329;28;20106;-65
2022/08/10 07:36:20;;;;;;;;;;;32.10;94.00;;;;;;5063687;28;20020;-64
2022/08/10 07:38:47;;;;;;;9.15;4.57;;;32.20;93.60;;;;;;5060525;28;19908;-64
2022/08/10 07:41:17;;;;;;;10.55;4.55;;;32.20;93.80;;;;;;5063003;28;20048;-64
2022/08/10 07:43:45;;;;;;;15.15;5.30;;;32.20;94.50;;;;;;5064561;28;20117;-64
2022/08/10 07:46:15;;;;;;;10.82;5.60;;;32.30;95.00;;;;;;5064007;28;20083;-64
2022/08/10 07:48:59;;;;;;;8.48;5.65;;;32.40;95.10;;;;;;5065254;28;20029;-64
2022/08/10 07:51:27;;;;;;;9.50;5.47;;;32.70;94.70;;;;;;5060557;28;20017;-64
2022/08/10 07:53:55;;;;;;;9.10;5.25;;;32.90;94.80;;;;;;5063623;28;20099;-64
2022/08/10 07:56:27;;;;;;;8.52;4.50;;;32.90;94.10;;;;;;5064894;28;20021;-66
2022/08/10 07:59:00;;;;;;;48.15;33.45;;;33.00;94.50;;;;;;5063952;28;20024;-65
2022/08/10 08:01:31;;;;;;;10.55;6.97;;;33.20;94.20;;;;;;5060972;28;20052;-66
2022/08/10 08:04:00;;;;;;;16.10;8.75;;;33.20;93.90;;;;;;5062741;28;20032;-66
2022/08/10 08:06:31;;;;;;;13.68;7.00;;;33.30;94.10;;;;;;5060951;28;20084;-66
2022/08/10 08:09:00;;;;;;;11.77;5.57;;;33.30;93.60;;;;;;5050352;28;20540;-66
2022/08/10 08:11:27;;;;;;;9.15;5.43;;;33.30;93.10;;;;;;5044448;28;20433;-66
2022/08/10 08:13:55;;;;;;;11.52;6.20;;;33.20;93.60;;;;;;5035086;28;20017;-66
2022/08/10 08:16:24;;;;;;;8.02;4.85;;;33.20;93.30;;;;;;5055941;28;20063;-66
2022/08/10 08:18:54;;;;;;;11.30;5.03;;;33.20;93.10;;;;;;5059862;28;20388;-67
2022/08/10 08:21:21;;;;;;;9.68;5.53;;;33.10;93.30;;;;;;5054667;28;20400;-66
2022/08/10 08:23:50;;;;;;;11.90;6.20;;;33.10;94.30;;;;;;5054891;28;20025;-66
2022/08/10 08:26:20;;;;;;;15.68;7.03;;;33.00;93.80;;;;;;5054405;28;20078;-66
2022/08/10 08:28:48;;;;;;;37.83;24.77;;;33.00;94.00;;;;;;5054609;28;20104;-66
2022/08/10 08:31:16;;;;;;;14.60;8.60;;;32.90;94.30;;;;;;5054536;28;20025;-66
2022/08/10 08:33:45;;;;;;;9.43;5.78;;;32.80;94.70;;;;;;5054451;28;20028;-67
2022/08/10 08:36:13;;;;;;;13.43;6.55;;;32.80;94.90;;;;;;5054631;28;20155;-66
2022/08/10 08:38:42;;;;;;;12.68;7.38;;;32.80;95.10;;;;;;5054734;28;20028;-66
2022/08/10 08:41:36;;;;;;;18.33;7.13;;;32.80;95.20;;;;;;5046770;28;20026;-66
2022/08/10 08:44:23;;;;;;;16.20;7.93;;;32.80;95.40;;;;;;5048179;28;20032;-67
2022/08/10 08:46:59;;;;;;;10.93;6.13;;;32.70;95.20;;;;;;5051949;28;20027;-67
2022/08/10 08:49:44;;;;;;;10.63;5.78;;;32.70;95.20;;;;;;5044288;28;20132;-66
2022/08/10 08:52:12;;;;;;;8.52;5.18;;;32.70;94.20;;;;;;5051750;28;20021;-66
2022/08/10 08:55:00;;;;;;;8.52;5.10;;;32.60;93.20;;;;;;5041707;28;20464;-67
2022/08/10 08:57:54;;;;;;;12.50;5.78;;;32.50;93.50;;;;;;4992674;28;20537;-66
2022/08/10 09:00:41;;;;;;;7.82;5.00;;;32.60;94.60;;;;;;4953766;29;20051;-66
2022/08/10 09:03:17;;;;;;;18.27;6.95;;;32.50;93.70;;;;;;4964227;28;20591;-67
2022/08/10 09:05:46;;;;;;;13.80;5.80;;;32.50;93.80;;;;;;4953839;29;20094;-66
2022/08/10 09:08:16;;;;;;;9.15;5.47;;;32.40;94.20;;;;;;4964500;28;20077;-64
2022/08/10 09:11:03;;;;;;;11.18;6.28;;;32.30;94.20;;;;;;4953487;29;20031;-67
2022/08/10 09:13:38;;;;;;;12.23;6.88;;;32.30;94.20;;;;;;4926208;29;20047;-66
2022/08/10 09:16:29;;;;;;;15.32;7.43;;;32.40;94.50;;;;;;4915349;29;20103;-66
2022/08/10 09:19:24;;;;;;;16.40;7.40;;;32.40;94.40;;;;;;4896258;29;20489;-66
2022/08/10 09:22:01;;;;;;;15.10;9.05;;;32.40;94.50;;;;;;4895582;29;20037;-66
2022/08/10 09:24:45;;;;;;;119.28;79.28;;;32.50;94.50;;;;;;4896347;29;20456;-66
2022/08/10 09:27:28;;;;;;;37.58;26.85;;;32.60;94.80;;;;;;4895292;29;20041;-65
2022/08/10 09:30:02;;;;;;;20.45;13.57;;;32.60;94.20;;;;;;4892162;29;20040;-64
2022/08/10 09:32:40;;;;;;;47.40;34.97;;;32.60;93.70;;;;;;4914588;29;20040;-65
2022/08/10 09:35:17;;;;;;;73.85;54.00;;;32.60;93.40;;;;;;4929178;29;20032;-66
2022/08/10 09:37:48;;;;;;;54.78;44.33;;;32.60;94.10;;;;;;4934158;29;20533;-67
2022/08/10 09:40:28;;;;;;;21.42;15.07;;;32.60;93.50;;;;;;4938657;29;20061;-66
2022/08/10 09:43:08;;;;;;;29.08;18.98;;;32.60;93.60;;;;;;4941386;29;20047;-66
2022/08/10 09:45:43;;;;;;;25.30;14.80;;;32.50;93.80;;;;;;4943364;29;20028;-66
2022/08/10 09:48:38;;;;;;;17.23;8.77;;;32.50;94.10;;;;;;4939437;29;20035;-67
2022/08/10 09:51:21;;;;;;;20.75;9.13;;;32.50;94.70;;;;;;4954626;28;20039;-66
2022/08/10 09:53:48;;;;;;;18.92;10.43;;;32.50;95.10;;;;;;4961477;28;20035;-67
2022/08/10 09:56:14;;;;;;;20.67;12.50;;;32.50;94.80;;;;;;4956981;28;20053;-65
2022/08/10 09:59:06;;;;;;;24.40;13.68;;;32.50;94.80;;;;;;4959354;28;20034;-64
2022/08/10 10:01:52;;;;;;;22.83;15.45;;;32.40;94.80;;;;;;4976252;28;20114;-66
2022/08/10 10:04:32;;;;;;;39.70;22.05;;;32.40;94.70;;;;;;5061991;28;20040;-66
2022/08/10 10:07:03;;;;;;;20.08;10.95;;;32.40;95.10;;;;;;5056226;28;20028;-66
2022/08/10 10:09:53;;;;;;;18.25;10.80;;;32.40;95.10;;;;;;5062190;28;20410;-67
2022/08/10 10:12:21;;;;;;;31.10;15.88;;;32.40;95.00;;;;;;5058033;28;20095;-67
2022/08/10 10:15:19;;;;;;;23.92;11.93;;;32.40;95.30;;;;;;5062046;28;20472;-66
2022/08/10 10:18:14;;;;;;;30.90;17.02;;;32.40;95.70;;;;;;5056899;28;20056;-67
2022/08/10 10:20:48;;;;;;;36.92;20.15;;;32.30;95.40;;;;;;5055666;28;20025;-67
2022/08/10 10:23:55;;;;;;;35.97;21.27;;;32.20;95.50;;;;;;5061072;28;20036;-66
2022/08/10 10:26:36;;;;;;;29.77;15.05;;;32.20;94.80;;;;;;5053158;28;20025;-66
2022/08/10 10:29:21;;;;;;;28.45;15.68;;;32.10;94.30;;;;;;5056093;28;20368;-66
2022/08/10 10:31:54;;;;;;;23.15;13.00;;;32.10;94.70;;;;;;5058886;28;20043;-66
2022/08/10 10:34:26;;;;;;;17.83;10.13;;;32.10;94.90;;;;;;5055568;28;20025;-66
2022/08/10 10:36:54;;;;;;;23.45;10.55;;;32.10;94.90;;;;;;5060189;28;20009;-66
2022/08/10 10:39:24;;;;;;;25.02;14.68;;;32.00;94.80;;;;;;5057955;28;20251;-67
2022/08/10 10:42:00;;;;;;;31.27;14.60;;;32.00;94.30;;;;;;5055375;28;20107;-65
2022/08/10 10:44:36;;;;;;;19.65;11.13;;;32.00;93.90;;;;;;5060196;28;20013;-66
2022/08/10 10:47:24;;;;;;;25.15;12.05;;;31.90;94.20;;;;;;5057024;28;20021;-66
2022/08/10 10:50:00;;;;;;;21.45;12.52;;;31.80;94.50;;;;;;5055194;28;20163;-67
2022/08/10 10:52:48;;;;;;;24.05;10.27;;;31.80;94.60;;;;;;5058066;28;20414;-66
2022/08/10 10:55:14;;;;;;;32.97;11.88;;;31.80;94.70;;;;;;4975224;28;20089;-68
2022/08/10 10:58:20;;;;;;;20.00;11.82;;;31.70;95.10;;;;;;4981257;28;20046;-68
2022/08/10 11:00:58;;;;;;;23.50;11.88;;;31.60;94.90;;;;;;4978525;28;20231;-68
2022/08/10 11:03:45;;;;;;;33.85;16.95;;;31.50;95.40;;;;;;4979476;28;20389;-67
2022/08/10 11:06:21;;;;;;;33.63;16.75;;;31.50;95.50;;;;;;4975788;28;20026;-68
2022/08/10 11:08:55;;;;;;;30.88;16.95;;;31.50;95.70;;;;;;4980981;28;20106;-67
2022/08/10 11:11:31;;;;;;;37.92;23.85;;;31.50;95.60;;;;;;4979254;28;20105;-68
2022/08/10 11:14:12;;;;;;;47.55;26.23;;;31.40;95.70;;;;;;4980386;28;20073;-67
2022/08/10 11:16:56;;;;;;;40.28;22.95;;;31.40;96.20;;;;;;4975669;28;20042;-67
2022/08/10 11:19:33;;;;;;;46.42;25.55;;;31.30;96.00;;;;;;4978390;28;20026;-65
2022/08/10 11:22:21;;;;;;;28.00;16.25;;;31.30;96.30;;;;;;4978980;28;20022;-66
2022/08/10 11:24:56;;;;;;;36.17;18.63;;;31.30;96.40;;;;;;4986341;28;20034;-67
2022/08/10 11:27:32;;;;;;;34.22;16.23;;;31.30;96.50;;;;;;5062157;28;20013;-66
2022/08/10 11:30:05;;;;;;;39.88;21.60;;;31.20;96.70;;;;;;5058649;28;20028;-68
2022/08/10 11:32:46;;;;;;;53.53;23.42;;;31.20;96.90;;;;;;5054475;28;20032;-67
2022/08/10 11:35:32;;;;;;;37.05;17.83;;;31.20;96.90;;;;;;5055990;28;20013;-66
2022/08/10 11:38:02;;;;;;;33.85;16.55;;;31.30;96.80;;;;;;5055861;28;20373;-68
2022/08/10 11:40:43;;;;;;;37.40;18.85;;;31.20;96.90;;;;;;5055856;28;20028;-68
2022/08/10 11:43:22;;;;;;;32.13;17.00;;;31.20;97.10;;;;;;5058649;28;20447;-67
2022/08/10 11:45:59;;;;;;;46.25;23.75;;;31.20;96.90;;;;;;5064196;28;20025;-67
2022/08/10 11:48:34;;;;;;;61.05;29.67;;;31.20;97.00;;;;;;5075049;28;20513;-67
2022/08/10 11:51:06;;;;;;;47.40;27.50;;;31.20;97.10;;;;;;5073715;28;20020;-68
2022/08/10 11:54:04;;;;;;;51.38;25.65;;;31.10;97.40;;;;;;5073471;28;20097;-68
2022/08/10 11:56:48;;;;;;;51.72;27.08;;;31.20;97.60;;;;;;5073564;28;20107;-67
2022/08/10 12:02:07;;;;;;;41.55;22.25;;;31.20;97.50;;;;;;5073592;28;20060;-67
2022/08/10 12:04:35;;;;;;;53.30;30.55;;;31.10;97.50;;;;;;5074468;28;20035;-67
2022/08/10 12:07:07;;;;;;;47.63;29.45;;;31.10;97.90;;;;;;5075352;28;20030;-66
2022/08/10 12:09:35;;;;;;;53.42;32.22;;;31.00;97.90;;;;;;5075132;28;20032;-67
2022/08/10 12:12:02;;;;;;;39.78;21.80;;;31.00;97.90;;;;;;5075255;28;20016;-68
2022/08/10 12:14:38;;;;;;;35.67;20.50;;;30.90;98.00;;;;;;5035109;28;20480;-69
2022/08/10 12:17:24;;;;;;;44.17;21.15;;;30.90;98.40;;;;;;5034826;28;20021;-67
2022/08/10 12:20:30;;;;;;;45.15;20.33;;;30.80;98.40;;;;;;5034963;28;20029;-68
2022/08/10 12:23:23;;;;;;;46.50;22.48;;;30.80;98.60;;;;;;5034704;28;20038;-67
2022/08/10 12:26:06;;;;;;;42.15;24.15;;;30.70;99.00;;;;;;4993230;28;20038;-68
2022/08/10 12:28:42;;;;;;;53.78;28.13;;;30.70;99.20;;;;;;4993326;28;20030;-67
2022/08/10 12:31:12;;;;;;;50.25;26.70;;;30.70;99.20;;;;;;5000530;28;20026;-67
2022/08/10 12:33:47;;;;;;;42.15;24.05;;;30.70;99.20;;;;;;5009061;28;20033;-68
2022/08/10 12:36:21;;;;;;;40.22;22.63;;;30.60;99.90;;;;;;5011555;28;20108;-68
2022/08/10 12:39:09;;;;;;;40.55;23.85;;;30.60;99.90;;;;;;5011513;28;20504;-67
2022/08/10 12:41:43;;;;;;;53.95;27.77;;;30.60;99.80;;;;;;5011414;28;20026;-68
2022/08/10 12:44:30;;;;;;;38.85;24.05;;;30.60;99.90;;;;;;5011106;28;20032;-68
2022/08/10 12:47:02;;;;;;;42.95;25.35;;;30.60;99.90;;;;;;5009089;28;20101;-68
2022/08/10 12:49:38;;;;;;;39.35;21.63;;;30.50;99.90;;;;;;5010930;28;20033;-67
2022/08/10 12:52:25;;;;;;;35.60;21.15;;;30.40;99.90;;;;;;5008044;28;20566;-67
2022/08/10 12:54:52;;;;;;;33.80;19.90;;;30.50;99.90;;;;;;5010406;28;20034;-67
2022/08/10 12:57:23;;;;;;;35.53;19.23;;;30.40;99.90;;;;;;5058339;28;20052;-67
2022/08/10 12:59:54;;;;;;;32.08;18.60;;;30.40;99.90;;;;;;5061596;28;20107;-67
2022/08/10 13:02:35;;;;;;;34.92;18.92;;;30.40;99.90;;;;;;5063097;28;20075;-65
2022/08/10 13:05:06;;;;;;;30.58;18.17;;;30.30;99.90;;;;;;5060744;28;20495;-67
2022/08/10 13:07:35;;;;;;;25.00;15.93;;;30.30;99.90;;;;;;5061710;28;20052;-65